createdAt,value
2017-07-08T00:00:10.253Z,1007.02
2017-07-08T00:01:12.426Z,1007.01
2017-07-08T00:02:14.447Z,1006.99
2017-07-08T00:03:16.440Z,1006.98
2017-07-08T00:04:18.435Z,1007.00
2017-07-08T00:05:20.436Z,1006.95
2017-07-08T00:06:22.437Z,1006.99
2017-07-08T00:07:24.400Z,1007.01
2017-07-08T00:08:26.814Z,1006.96
2017-07-08T00:09:29.174Z,1006.96
2017-07-08T00:10:30.607Z,1006.98
2017-07-08T00:11:32.866Z,1006.98
2017-07-08T00:12:34.980Z,1006.91
2017-07-08T00:13:37.134Z,1006.95
2017-07-08T00:14:39.207Z,1006.93
2017-07-08T00:15:41.249Z,1006.90
2017-07-08T00:16:43.219Z,1006.89
2017-07-08T00:17:45.243Z,1006.90
2017-07-08T00:18:46.678Z,1006.90
2017-07-08T00:19:48.610Z,1006.83
2017-07-08T00:20:51.004Z,1006.83
2017-07-08T00:21:52.965Z,1006.87
2017-07-08T00:22:55.272Z,1006.81
2017-07-08T00:23:57.523Z,1006.89
2017-07-08T00:24:59.528Z,1006.90
2017-07-08T00:26:01.658Z,1006.93
2017-07-08T00:27:03.092Z,1006.92
2017-07-08T00:28:04.518Z,1006.90
2017-07-08T00:29:05.940Z,1006.93
2017-07-08T00:30:07.369Z,1006.94
2017-07-08T00:31:08.804Z,1006.93
2017-07-08T00:32:10.258Z,1006.96
2017-07-08T00:33:11.677Z,1006.98
2017-07-08T00:34:13.105Z,1006.94
2017-07-08T00:35:14.539Z,1007.01
2017-07-08T00:36:15.964Z,1006.98
2017-07-08T00:37:17.390Z,1006.95
2017-07-08T00:38:18.818Z,1006.98
2017-07-08T00:39:20.248Z,1006.93
2017-07-08T00:40:21.673Z,1006.92
2017-07-08T00:41:23.095Z,1006.91
2017-07-08T00:42:24.517Z,1006.89
2017-07-08T00:43:25.940Z,1006.89
2017-07-08T00:44:27.368Z,1006.86
2017-07-08T00:45:28.794Z,1006.84
2017-07-08T00:46:30.212Z,1006.84
2017-07-08T00:47:31.645Z,1006.85
2017-07-08T00:48:33.065Z,1006.90
2017-07-08T00:49:34.486Z,1006.84
2017-07-08T00:50:35.919Z,1006.89
2017-07-08T00:51:37.341Z,1006.88
2017-07-08T00:52:38.775Z,1006.90
2017-07-08T00:53:40.197Z,1006.82
2017-07-08T00:54:41.618Z,1006.84
2017-07-08T00:55:43.047Z,1006.87
2017-07-08T00:56:44.472Z,1006.84
2017-07-08T00:57:45.901Z,1006.85
2017-07-08T00:58:47.325Z,1006.86
2017-07-08T00:59:48.755Z,1006.88
2017-07-08T01:00:50.195Z,1006.84
2017-07-08T01:01:51.624Z,1006.88
2017-07-08T01:02:53.052Z,1006.92
2017-07-08T01:03:54.470Z,1006.89
2017-07-08T01:04:56.005Z,1006.86
2017-07-08T01:05:57.433Z,1006.89
2017-07-08T01:06:58.856Z,1006.88
2017-07-08T01:08:00.327Z,1006.81
2017-07-08T01:09:01.746Z,1006.83
2017-07-08T01:10:03.177Z,1006.80
2017-07-08T01:11:04.609Z,1006.74
2017-07-08T01:12:06.034Z,1006.77
2017-07-08T01:13:07.458Z,1006.78
2017-07-08T01:14:08.885Z,1006.77
2017-07-08T01:15:10.316Z,1006.74
2017-07-08T01:16:11.742Z,1006.75
2017-07-08T01:17:13.163Z,1006.75
2017-07-08T01:18:14.595Z,1006.75
2017-07-08T01:19:16.019Z,1006.79
2017-07-08T01:20:17.465Z,1006.79
2017-07-08T01:21:18.864Z,1006.82
2017-07-08T01:22:20.294Z,1006.82
2017-07-08T01:23:21.714Z,1006.86
2017-07-08T01:24:23.141Z,1006.83
2017-07-08T01:25:24.566Z,1006.84
2017-07-08T01:26:25.988Z,1006.86
2017-07-08T01:27:27.409Z,1006.77
2017-07-08T01:28:28.829Z,1006.84
2017-07-08T01:29:30.259Z,1006.78
2017-07-08T01:30:31.686Z,1006.77
2017-07-08T01:31:33.164Z,1006.76
2017-07-08T01:32:34.602Z,1006.76
2017-07-08T01:33:36.018Z,1006.81
2017-07-08T01:34:37.450Z,1006.79
2017-07-08T01:35:38.870Z,1006.82
2017-07-08T01:36:40.301Z,1006.81
2017-07-08T01:37:41.724Z,1006.78
2017-07-08T01:38:43.141Z,1006.79
2017-07-08T01:39:44.568Z,1006.78
2017-07-08T01:40:45.994Z,1006.78
2017-07-08T01:41:47.428Z,1006.77
2017-07-08T01:42:48.851Z,1006.75
2017-07-08T01:43:50.330Z,1006.80
2017-07-08T01:44:51.758Z,1006.81
2017-07-08T01:45:53.186Z,1006.75
2017-07-08T01:46:54.610Z,1006.76
2017-07-08T01:47:56.039Z,1006.78
2017-07-08T01:48:57.459Z,1006.72
2017-07-08T01:49:58.880Z,1006.66
2017-07-08T01:51:00.295Z,1006.69
2017-07-08T01:52:01.718Z,1006.69
2017-07-08T01:53:03.147Z,1006.63
2017-07-08T01:54:04.571Z,1006.64
2017-07-08T01:55:05.999Z,1006.58
2017-07-08T01:56:07.422Z,1006.56
2017-07-08T01:57:08.840Z,1006.48
2017-07-08T01:58:10.267Z,1006.47
2017-07-08T01:59:11.703Z,1006.46
2017-07-08T02:00:13.142Z,1006.46
2017-07-08T02:01:14.578Z,1006.42
2017-07-08T02:02:16.003Z,1006.39
2017-07-08T02:03:17.428Z,1006.36
2017-07-08T02:04:18.855Z,1006.33
2017-07-08T02:05:20.285Z,1006.35
2017-07-08T02:06:21.716Z,1006.31
2017-07-08T02:07:23.140Z,1006.31
2017-07-08T02:08:24.574Z,1006.33
2017-07-08T02:09:26.008Z,1006.39
2017-07-08T02:10:27.435Z,1006.38
2017-07-08T02:11:28.858Z,1006.42
2017-07-08T02:12:30.293Z,1006.42
2017-07-08T02:13:31.718Z,1006.39
2017-07-08T02:14:33.147Z,1006.41
2017-07-08T02:15:34.574Z,1006.47
2017-07-08T02:16:36.017Z,1006.53
2017-07-08T02:17:37.434Z,1006.56
2017-07-08T02:18:38.857Z,1006.49
2017-07-08T02:19:40.283Z,1006.47
2017-07-08T02:20:41.712Z,1006.41
2017-07-08T02:21:43.135Z,1006.45
2017-07-08T02:22:44.558Z,1006.47
2017-07-08T02:23:45.985Z,1006.44
2017-07-08T02:24:47.419Z,1006.45
2017-07-08T02:25:48.849Z,1006.43
2017-07-08T02:26:50.265Z,1006.45
2017-07-08T02:27:51.706Z,1006.43
2017-07-08T02:28:53.137Z,1006.49
2017-07-08T02:29:54.558Z,1006.49
2017-07-08T02:30:55.986Z,1006.52
2017-07-08T02:31:57.415Z,1006.53
2017-07-08T02:32:58.834Z,1006.49
2017-07-08T02:34:00.264Z,1006.48
2017-07-08T02:35:01.693Z,1006.40
2017-07-08T02:36:03.125Z,1006.37
2017-07-08T02:37:04.550Z,1006.41
2017-07-08T02:38:05.979Z,1006.42
2017-07-08T02:39:07.402Z,1006.44
2017-07-08T02:40:08.829Z,1006.41
2017-07-08T02:41:10.254Z,1006.36
2017-07-08T02:42:11.673Z,1006.37
2017-07-08T02:43:13.097Z,1006.38
2017-07-08T02:44:14.521Z,1006.43
2017-07-08T02:45:15.947Z,1006.44
2017-07-08T02:46:17.368Z,1006.43
2017-07-08T02:47:18.844Z,1006.40
2017-07-08T02:48:20.209Z,1006.35
2017-07-08T02:49:21.642Z,1006.36
2017-07-08T02:50:23.069Z,1006.34
2017-07-08T02:51:24.494Z,1006.32
2017-07-08T02:52:25.915Z,1006.25
2017-07-08T02:53:27.335Z,1006.23
2017-07-08T02:54:29.489Z,1006.16
2017-07-08T02:55:30.921Z,1006.18
2017-07-08T02:56:32.419Z,1006.12
2017-07-08T02:57:33.839Z,1006.12
2017-07-08T02:58:35.262Z,1006.18
2017-07-08T02:59:36.767Z,1006.18
2017-07-08T03:00:38.192Z,1006.25
2017-07-08T03:01:39.615Z,1006.23
2017-07-08T03:02:41.038Z,1006.29
2017-07-08T03:03:42.470Z,1006.31
2017-07-08T03:04:43.959Z,1006.28
2017-07-08T03:05:45.392Z,1006.22
2017-07-08T03:06:46.811Z,1006.21
2017-07-08T03:07:48.341Z,1006.21
2017-07-08T03:08:49.767Z,1006.24
2017-07-08T03:09:51.190Z,1006.25
2017-07-08T03:10:52.618Z,1006.28
2017-07-08T03:11:54.049Z,1006.18
2017-07-08T03:12:55.476Z,1006.16
2017-07-08T03:13:56.903Z,1006.17
2017-07-08T03:14:58.324Z,1006.14
2017-07-08T03:15:59.754Z,1006.11
2017-07-08T03:17:01.176Z,1006.07
2017-07-08T03:18:02.598Z,1006.05
2017-07-08T03:19:04.028Z,1006.05
2017-07-08T03:20:05.459Z,1006.07
2017-07-08T03:21:06.903Z,1006.06
2017-07-08T03:22:08.324Z,1006.04
2017-07-08T03:23:09.747Z,1006.05
2017-07-08T03:24:11.178Z,1006.12
2017-07-08T03:25:12.596Z,1006.12
2017-07-08T03:26:14.025Z,1006.10
2017-07-08T03:27:15.457Z,1006.15
2017-07-08T03:28:16.885Z,1006.18
2017-07-08T03:29:18.316Z,1006.18
2017-07-08T03:30:19.738Z,1006.18
2017-07-08T03:31:21.172Z,1006.18
2017-07-08T03:32:22.612Z,1006.19
2017-07-08T03:33:24.032Z,1006.22
2017-07-08T03:34:25.462Z,1006.22
2017-07-08T03:35:26.888Z,1006.17
2017-07-08T03:36:28.317Z,1006.17
2017-07-08T03:37:29.739Z,1006.19
2017-07-08T03:38:31.165Z,1006.21
2017-07-08T03:39:32.592Z,1006.19
2017-07-08T03:40:34.016Z,1006.18
2017-07-08T03:41:35.442Z,1006.19
2017-07-08T03:42:36.865Z,1006.17
2017-07-08T03:43:38.294Z,1006.20
2017-07-08T03:44:39.719Z,1006.17
2017-07-08T03:45:41.145Z,1006.22
2017-07-08T03:46:42.584Z,1006.20
2017-07-08T03:47:44.009Z,1006.23
2017-07-08T03:48:45.430Z,1006.25
2017-07-08T03:49:46.854Z,1006.31
2017-07-08T03:50:48.279Z,1006.43
2017-07-08T03:51:49.705Z,1006.45
2017-07-08T03:52:51.129Z,1006.45
2017-07-08T03:53:52.556Z,1006.51
2017-07-08T03:54:53.979Z,1006.54
2017-07-08T03:55:55.407Z,1006.56
2017-07-08T03:56:56.836Z,1006.50
2017-07-08T03:57:58.263Z,1006.41
2017-07-08T03:58:59.693Z,1006.40
2017-07-08T04:00:01.119Z,1006.42
2017-07-08T04:01:02.552Z,1006.38
2017-07-08T04:02:03.972Z,1006.30
2017-07-08T04:03:05.397Z,1006.30
2017-07-08T04:04:06.825Z,1006.28
2017-07-08T04:05:08.257Z,1006.29
2017-07-08T04:06:09.695Z,1006.28
2017-07-08T04:07:11.118Z,1006.27
2017-07-08T04:08:12.541Z,1006.19
2017-07-08T04:09:13.970Z,1006.18
2017-07-08T04:10:15.405Z,1006.21
2017-07-08T04:11:16.834Z,1006.20
2017-07-08T04:12:18.344Z,1006.19
2017-07-08T04:13:19.766Z,1006.19
2017-07-08T04:14:21.188Z,1006.18
2017-07-08T04:15:22.614Z,1006.24
2017-07-08T04:16:24.040Z,1006.31
2017-07-08T04:17:25.475Z,1006.28
2017-07-08T04:18:26.896Z,1006.28
2017-07-08T04:19:28.325Z,1006.25
2017-07-08T04:20:29.748Z,1006.26
2017-07-08T04:21:31.170Z,1006.29
2017-07-08T04:22:32.591Z,1006.32
2017-07-08T04:23:34.024Z,1006.33
2017-07-08T04:24:35.456Z,1006.33
2017-07-08T04:25:36.889Z,1006.37
2017-07-08T04:26:38.323Z,1006.37
2017-07-08T04:27:39.747Z,1006.36
2017-07-08T04:28:41.175Z,1006.35
2017-07-08T04:29:42.594Z,1006.37
2017-07-08T04:30:44.023Z,1006.43
2017-07-08T04:31:45.464Z,1006.44
2017-07-08T04:32:46.949Z,1006.48
2017-07-08T04:33:48.361Z,1006.51
2017-07-08T04:34:49.793Z,1006.52
2017-07-08T04:35:51.225Z,1006.55
2017-07-08T04:36:52.651Z,1006.49
2017-07-08T04:37:54.075Z,1006.54
2017-07-08T04:38:55.504Z,1006.60
2017-07-08T04:39:56.937Z,1006.57
2017-07-08T04:40:58.367Z,1006.61
2017-07-08T04:41:59.799Z,1006.67
2017-07-08T04:43:01.225Z,1006.65
2017-07-08T04:44:02.653Z,1006.75
2017-07-08T04:45:04.079Z,1006.69
2017-07-08T04:46:05.506Z,1006.74
2017-07-08T04:47:06.934Z,1006.72
2017-07-08T04:48:08.356Z,1006.72
2017-07-08T04:49:09.779Z,1006.80
2017-07-08T04:50:11.209Z,1006.77
2017-07-08T04:51:12.652Z,1006.80
2017-07-08T04:52:14.081Z,1006.81
2017-07-08T04:53:15.521Z,1006.77
2017-07-08T04:54:16.952Z,1006.77
2017-07-08T04:55:18.378Z,1006.79
2017-07-08T04:56:19.812Z,1006.80
2017-07-08T04:57:21.240Z,1006.80
2017-07-08T04:58:22.669Z,1006.82
2017-07-08T04:59:24.113Z,1006.77
2017-07-08T05:00:25.541Z,1006.82
2017-07-08T05:01:26.965Z,1006.81
2017-07-08T05:02:28.393Z,1006.82
2017-07-08T05:03:29.818Z,1006.78
2017-07-08T05:04:31.259Z,1006.80
2017-07-08T05:05:32.684Z,1006.78
2017-07-08T05:06:34.117Z,1006.79
2017-07-08T05:07:35.548Z,1006.80
2017-07-08T05:08:36.976Z,1006.80
2017-07-08T05:09:38.404Z,1006.81
2017-07-08T05:10:39.833Z,1006.85
2017-07-08T05:11:41.257Z,1006.86
2017-07-08T05:12:42.687Z,1006.87
2017-07-08T05:13:44.119Z,1006.83
2017-07-08T05:14:45.556Z,1006.83
2017-07-08T05:15:46.971Z,1006.78
2017-07-08T05:16:48.393Z,1006.76
2017-07-08T05:17:49.818Z,1006.82
2017-07-08T05:18:51.252Z,1006.81
2017-07-08T05:19:52.688Z,1006.88
2017-07-08T05:20:54.118Z,1006.83
2017-07-08T05:21:55.542Z,1006.83
2017-07-08T05:22:56.972Z,1006.94
2017-07-08T05:23:58.516Z,1006.93
2017-07-08T05:24:59.956Z,1006.93
2017-07-08T05:26:01.383Z,1006.89
2017-07-08T05:27:02.807Z,1006.93
2017-07-08T05:28:04.243Z,1006.98
2017-07-08T05:29:05.673Z,1006.96
2017-07-08T05:30:07.843Z,1006.95
2017-07-08T05:31:09.278Z,1006.97
2017-07-08T05:32:10.713Z,1006.98
2017-07-08T05:33:12.137Z,1006.95
2017-07-08T05:34:13.580Z,1006.97
2017-07-08T05:35:15.005Z,1006.99
2017-07-08T05:36:16.442Z,1007.03
2017-07-08T05:37:17.869Z,1006.97
2017-07-08T05:38:19.295Z,1006.99
2017-07-08T05:39:20.721Z,1006.98
2017-07-08T05:40:22.174Z,1006.98
2017-07-08T05:41:23.609Z,1007.00
2017-07-08T05:42:25.048Z,1007.03
2017-07-08T05:43:26.471Z,1007.08
2017-07-08T05:44:27.903Z,1007.08
2017-07-08T05:45:29.332Z,1007.07
2017-07-08T05:46:30.761Z,1007.09
2017-07-08T05:47:32.192Z,1007.04
2017-07-08T05:48:33.626Z,1007.05
2017-07-08T05:49:35.052Z,1007.02
2017-07-08T05:50:36.489Z,1006.99
2017-07-08T05:51:37.920Z,1007.00
2017-07-08T05:52:39.352Z,1007.01
2017-07-08T05:53:40.780Z,1007.02
2017-07-08T05:54:42.211Z,1007.03
2017-07-08T05:55:43.637Z,1007.04
2017-07-08T05:56:45.070Z,1007.08
2017-07-08T05:57:46.502Z,1007.07
2017-07-08T05:58:47.927Z,1007.05
2017-07-08T05:59:49.356Z,1007.10
2017-07-08T06:00:50.788Z,1007.10
2017-07-08T06:01:52.225Z,1007.09
2017-07-08T06:02:53.657Z,1007.10
2017-07-08T06:03:55.670Z,1007.11
2017-07-08T06:04:57.107Z,1007.12
2017-07-08T06:05:58.546Z,1007.14
2017-07-08T06:06:59.984Z,1007.09
2017-07-08T06:08:01.412Z,1007.15
2017-07-08T06:09:02.842Z,1007.12
2017-07-08T06:10:04.276Z,1007.12
2017-07-08T06:11:05.706Z,1007.12
2017-07-08T06:12:07.134Z,1007.13
2017-07-08T06:13:08.565Z,1007.17
2017-07-08T06:14:09.991Z,1007.07
2017-07-08T06:15:11.423Z,1007.09
2017-07-08T06:16:12.849Z,1007.08
2017-07-08T06:17:14.318Z,1007.04
2017-07-08T06:18:15.803Z,1007.06
2017-07-08T06:19:17.182Z,1007.07
2017-07-08T06:20:18.613Z,1007.07
2017-07-08T06:21:20.041Z,1007.08
2017-07-08T06:22:21.475Z,1007.11
2017-07-08T06:23:22.907Z,1007.13
2017-07-08T06:24:24.345Z,1007.11
2017-07-08T06:25:25.774Z,1007.15
2017-07-08T06:26:27.203Z,1007.16
2017-07-08T06:27:28.636Z,1007.17
2017-07-08T06:28:30.070Z,1007.17
2017-07-08T06:29:31.507Z,1007.13
2017-07-08T06:30:32.946Z,1007.12
2017-07-08T06:31:34.400Z,1007.07
2017-07-08T06:32:35.828Z,1007.11
2017-07-08T06:33:37.255Z,1007.09
2017-07-08T06:34:39.455Z,1007.10
2017-07-08T06:35:40.891Z,1007.16
2017-07-08T06:36:42.313Z,1007.16
2017-07-08T06:37:43.758Z,1007.16
2017-07-08T06:38:45.190Z,1007.13
2017-07-08T06:39:46.622Z,1007.14
2017-07-08T06:40:48.048Z,1007.20
2017-07-08T06:41:49.484Z,1007.17
2017-07-08T06:42:51.588Z,1007.20
2017-07-08T06:43:53.016Z,1007.16
2017-07-08T06:44:54.484Z,1007.18
2017-07-08T06:45:55.918Z,1007.19
2017-07-08T06:46:57.345Z,1007.23
2017-07-08T06:47:58.839Z,1007.23
2017-07-08T06:49:00.271Z,1007.23
2017-07-08T06:50:01.702Z,1007.24
2017-07-08T06:51:03.129Z,1007.28
2017-07-08T06:52:04.565Z,1007.25
2017-07-08T06:53:05.996Z,1007.25
2017-07-08T06:54:07.453Z,1007.23
2017-07-08T06:55:08.886Z,1007.21
2017-07-08T06:56:10.325Z,1007.19
2017-07-08T06:57:11.749Z,1007.16
2017-07-08T06:58:13.189Z,1007.18
2017-07-08T06:59:14.618Z,1007.18
2017-07-08T07:00:16.052Z,1007.21
2017-07-08T07:01:17.492Z,1007.25
2017-07-08T07:02:18.917Z,1007.33
2017-07-08T07:03:20.348Z,1007.34
2017-07-08T07:04:21.784Z,1007.31
2017-07-08T07:05:23.221Z,1007.27
2017-07-08T07:06:24.666Z,1007.28
2017-07-08T07:07:26.104Z,1007.26
2017-07-08T07:08:27.531Z,1007.25
2017-07-08T07:09:28.983Z,1007.23
2017-07-08T07:10:30.419Z,1007.27
2017-07-08T07:11:31.849Z,1007.33
2017-07-08T07:12:33.276Z,1007.31
2017-07-08T07:13:34.711Z,1007.28
2017-07-08T07:14:36.141Z,1007.30
2017-07-08T07:15:37.568Z,1007.29
2017-07-08T07:16:39.001Z,1007.23
2017-07-08T07:17:40.425Z,1007.26
2017-07-08T07:18:41.865Z,1007.26
2017-07-08T07:19:43.291Z,1007.31
2017-07-08T07:20:44.723Z,1007.31
2017-07-08T07:21:46.145Z,1007.31
2017-07-08T07:22:47.581Z,1007.30
2017-07-08T07:23:49.010Z,1007.32
2017-07-08T07:24:50.443Z,1007.32
2017-07-08T07:25:51.868Z,1007.36
2017-07-08T07:26:53.297Z,1007.38
2017-07-08T07:27:54.731Z,1007.38
2017-07-08T07:28:56.793Z,1007.40
2017-07-08T07:29:58.257Z,1007.40
2017-07-08T07:30:59.685Z,1007.38
2017-07-08T07:32:01.122Z,1007.40
2017-07-08T07:33:02.547Z,1007.47
2017-07-08T07:34:03.985Z,1007.50
2017-07-08T07:35:05.418Z,1007.51
2017-07-08T07:36:06.864Z,1007.62
2017-07-08T07:37:08.296Z,1007.63
2017-07-08T07:38:09.727Z,1007.64
2017-07-08T07:39:11.177Z,1007.68
2017-07-08T07:40:12.613Z,1007.68
2017-07-08T07:41:14.043Z,1007.67
2017-07-08T07:42:15.472Z,1007.68
2017-07-08T07:43:16.913Z,1007.75
2017-07-08T07:44:18.348Z,1007.75
2017-07-08T07:45:19.780Z,1007.77
2017-07-08T07:46:21.211Z,1007.75
2017-07-08T07:47:22.639Z,1007.77
2017-07-08T07:48:24.065Z,1007.78
2017-07-08T07:49:25.502Z,1007.75
2017-07-08T07:50:26.938Z,1007.75
2017-07-08T07:51:28.368Z,1007.71
2017-07-08T07:52:29.826Z,1007.74
2017-07-08T07:53:31.269Z,1007.76
2017-07-08T07:54:32.700Z,1007.74
2017-07-08T07:55:34.138Z,1007.72
2017-07-08T07:56:35.570Z,1007.73
2017-07-08T07:57:37.020Z,1007.74
2017-07-08T07:58:38.456Z,1007.71
2017-07-08T07:59:39.881Z,1007.78
2017-07-08T08:00:41.314Z,1007.78
2017-07-08T08:01:42.753Z,1007.76
2017-07-08T08:02:44.184Z,1007.78
2017-07-08T08:03:45.616Z,1007.77
2017-07-08T08:04:47.050Z,1007.75
2017-07-08T08:05:48.488Z,1007.75
2017-07-08T08:06:49.961Z,1007.77
2017-07-08T08:07:51.388Z,1007.79
2017-07-08T08:08:52.853Z,1007.76
2017-07-08T08:09:54.294Z,1007.77
2017-07-08T08:10:55.728Z,1007.78
2017-07-08T08:11:57.178Z,1007.71
2017-07-08T08:12:58.611Z,1007.70
2017-07-08T08:14:00.075Z,1007.77
2017-07-08T08:15:01.498Z,1007.82
2017-07-08T08:16:02.929Z,1007.86
2017-07-08T08:17:04.376Z,1007.90
2017-07-08T08:18:05.808Z,1007.89
2017-07-08T08:19:07.257Z,1007.88
2017-07-08T08:20:08.685Z,1007.89
2017-07-08T08:21:10.144Z,1007.91
2017-07-08T08:22:11.573Z,1007.90
2017-07-08T08:23:13.006Z,1007.95
2017-07-08T08:24:14.515Z,1007.92
2017-07-08T08:25:15.948Z,1007.96
2017-07-08T08:26:17.384Z,1007.98
2017-07-08T08:27:18.840Z,1007.98
2017-07-08T08:28:20.383Z,1007.97
2017-07-08T08:29:21.817Z,1007.95
2017-07-08T08:30:23.252Z,1007.98
2017-07-08T08:31:24.693Z,1007.97
2017-07-08T08:32:26.129Z,1007.98
2017-07-08T08:33:27.572Z,1007.97
2017-07-08T08:34:29.016Z,1008.00
2017-07-08T08:35:30.450Z,1007.97
2017-07-08T08:36:31.882Z,1007.97
2017-07-08T08:37:33.314Z,1007.97
2017-07-08T08:38:34.749Z,1007.95
2017-07-08T08:39:36.193Z,1007.98
2017-07-08T08:40:37.632Z,1007.93
2017-07-08T08:41:39.065Z,1007.94
2017-07-08T08:42:40.561Z,1007.93
2017-07-08T08:43:41.993Z,1007.91
2017-07-08T08:44:43.424Z,1007.88
2017-07-08T08:45:44.860Z,1007.86
2017-07-08T08:46:46.300Z,1007.87
2017-07-08T08:47:47.727Z,1007.87
2017-07-08T08:48:49.160Z,1007.86
2017-07-08T08:49:50.595Z,1007.87
2017-07-08T08:50:52.148Z,1007.83
2017-07-08T08:51:53.581Z,1007.76
2017-07-08T08:52:55.012Z,1007.81
2017-07-08T08:53:56.451Z,1007.81
2017-07-08T08:54:57.883Z,1007.83
2017-07-08T08:55:59.311Z,1007.86
2017-07-08T08:57:00.742Z,1007.86
2017-07-08T08:58:02.180Z,1007.82
2017-07-08T08:59:03.611Z,1007.85
2017-07-08T09:00:05.042Z,1007.86
2017-07-08T09:01:06.497Z,1007.82
2017-07-08T09:02:07.930Z,1007.82
2017-07-08T09:03:09.373Z,1007.79
2017-07-08T09:04:10.808Z,1007.79
2017-07-08T09:05:12.261Z,1007.74
2017-07-08T09:06:13.699Z,1007.70
2017-07-08T09:07:15.133Z,1007.69
2017-07-08T09:08:16.568Z,1007.72
2017-07-08T09:09:18.010Z,1007.78
2017-07-08T09:10:19.453Z,1007.82
2017-07-08T09:11:20.878Z,1007.81
2017-07-08T09:12:22.330Z,1007.85
2017-07-08T09:13:23.764Z,1007.87
2017-07-08T09:14:25.195Z,1007.91
2017-07-08T09:15:26.743Z,1007.93
2017-07-08T09:16:28.228Z,1007.89
2017-07-08T09:17:29.679Z,1007.88
2017-07-08T09:18:31.333Z,1007.95
2017-07-08T09:19:32.761Z,1007.90
2017-07-08T09:20:34.205Z,1007.92
2017-07-08T09:21:35.632Z,1007.88
2017-07-08T09:22:37.070Z,1007.86
2017-07-08T09:23:38.503Z,1007.84
2017-07-08T09:24:39.953Z,1007.81
2017-07-08T09:25:41.414Z,1007.84
2017-07-08T09:26:42.853Z,1007.85
2017-07-08T09:27:44.295Z,1007.81
2017-07-08T09:28:45.724Z,1007.81
2017-07-08T09:29:47.150Z,1007.82
2017-07-08T09:30:48.581Z,1007.81
2017-07-08T09:31:50.037Z,1007.82
2017-07-08T09:32:51.481Z,1007.85
2017-07-08T09:33:52.916Z,1007.87
2017-07-08T09:34:54.351Z,1007.84
2017-07-08T09:35:55.792Z,1007.85
2017-07-08T09:36:57.227Z,1007.81
2017-07-08T09:37:58.654Z,1007.80
2017-07-08T09:39:00.081Z,1007.81
2017-07-08T09:40:01.516Z,1007.81
2017-07-08T09:41:02.946Z,1007.83
2017-07-08T09:42:04.379Z,1007.89
2017-07-08T09:43:05.823Z,1007.81
2017-07-08T09:44:07.257Z,1007.85
2017-07-08T09:45:08.688Z,1007.85
2017-07-08T09:46:10.123Z,1007.89
2017-07-08T09:47:11.557Z,1007.79
2017-07-08T09:48:12.992Z,1007.86
2017-07-08T09:49:14.418Z,1007.85
2017-07-08T09:50:15.852Z,1007.89
2017-07-08T09:51:17.282Z,1007.84
2017-07-08T09:52:18.721Z,1007.84
2017-07-08T09:53:20.164Z,1007.86
2017-07-08T09:54:21.605Z,1007.84
2017-07-08T09:55:23.046Z,1007.84
2017-07-08T09:56:24.482Z,1007.86
2017-07-08T09:57:25.920Z,1007.88
2017-07-08T09:58:27.870Z,1007.86
2017-07-08T09:59:29.304Z,1007.87
2017-07-08T10:00:30.735Z,1007.88
2017-07-08T10:01:32.177Z,1007.88
2017-07-08T10:02:33.606Z,1007.86
2017-07-08T10:03:35.045Z,1007.86
2017-07-08T10:04:37.308Z,1007.95
2017-07-08T10:05:39.502Z,1007.91
2017-07-08T10:06:40.931Z,1007.87
2017-07-08T10:07:42.368Z,1007.85
2017-07-08T10:08:43.798Z,1007.89
2017-07-08T10:09:45.240Z,1007.89
2017-07-08T10:10:46.683Z,1007.82
2017-07-08T10:11:48.169Z,1007.84
2017-07-08T10:12:49.553Z,1007.90
2017-07-08T10:13:50.981Z,1007.91
2017-07-08T10:14:52.423Z,1007.92
2017-07-08T10:15:53.859Z,1007.89
2017-07-08T10:16:55.325Z,1007.88
2017-07-08T10:17:56.769Z,1007.89
2017-07-08T10:18:58.207Z,1007.91
2017-07-08T10:19:59.647Z,1007.88
2017-07-08T10:21:01.089Z,1007.91
2017-07-08T10:22:02.530Z,1007.93
2017-07-08T10:23:03.957Z,1007.87
2017-07-08T10:24:05.399Z,1007.90
2017-07-08T10:25:06.849Z,1007.97
2017-07-08T10:26:08.305Z,1007.98
2017-07-08T10:27:09.741Z,1007.92
2017-07-08T10:28:11.185Z,1007.96
2017-07-08T10:29:12.617Z,1007.97
2017-07-08T10:30:14.049Z,1007.95
2017-07-08T10:31:15.487Z,1007.91
2017-07-08T10:32:16.926Z,1007.92
2017-07-08T10:33:18.363Z,1007.93
2017-07-08T10:34:19.809Z,1007.95
2017-07-08T10:35:21.243Z,1007.92
2017-07-08T10:36:22.679Z,1007.94
2017-07-08T10:37:24.121Z,1007.93
2017-07-08T10:38:25.564Z,1007.90
2017-07-08T10:39:27.008Z,1007.90
2017-07-08T10:40:28.449Z,1007.89
2017-07-08T10:41:29.880Z,1007.87
2017-07-08T10:42:31.314Z,1007.87
2017-07-08T10:43:32.763Z,1007.87
2017-07-08T10:44:34.189Z,1007.88
2017-07-08T10:45:35.623Z,1007.85
2017-07-08T10:46:37.053Z,1007.85
2017-07-08T10:47:38.491Z,1007.86
2017-07-08T10:48:39.921Z,1007.84
2017-07-08T10:49:41.355Z,1007.79
2017-07-08T10:50:42.787Z,1007.80
2017-07-08T10:51:44.224Z,1007.73
2017-07-08T10:52:46.929Z,1007.80
2017-07-08T10:53:48.374Z,1007.71
2017-07-08T10:54:49.813Z,1007.68
2017-07-08T10:55:51.255Z,1007.70
2017-07-08T10:56:52.696Z,1007.68
2017-07-08T10:57:54.135Z,1007.64
2017-07-08T10:58:55.579Z,1007.67
2017-07-08T10:59:57.010Z,1007.66
2017-07-08T11:00:58.466Z,1007.69
2017-07-08T11:01:59.914Z,1007.76
2017-07-08T11:03:01.356Z,1007.66
2017-07-08T11:04:02.794Z,1007.65
2017-07-08T11:05:04.235Z,1007.69
2017-07-08T11:06:05.680Z,1007.70
2017-07-08T11:07:07.116Z,1007.74
2017-07-08T11:08:08.595Z,1007.77
2017-07-08T11:09:10.023Z,1007.80
2017-07-08T11:10:11.461Z,1007.77
2017-07-08T11:11:12.892Z,1007.68
2017-07-08T11:12:14.333Z,1007.70
2017-07-08T11:13:15.766Z,1007.63
2017-07-08T11:14:17.223Z,1007.65
2017-07-08T11:15:18.681Z,1007.60
2017-07-08T11:16:50.331Z,1007.60
2017-07-08T11:17:51.783Z,1007.60
2017-07-08T11:18:53.221Z,1007.60
2017-07-08T11:19:54.662Z,1007.61
2017-07-08T11:21:00.089Z,1007.67
2017-07-08T11:22:33.173Z,1007.63
2017-07-08T11:23:47.829Z,1007.56
2017-07-08T11:24:52.691Z,1007.57
2017-07-08T11:25:59.514Z,1007.54
2017-07-08T11:27:03.053Z,1007.53
2017-07-08T11:28:04.220Z,1007.51
2017-07-08T11:29:05.655Z,1007.49
2017-07-08T11:30:07.095Z,1007.55
2017-07-08T11:31:08.536Z,1007.57
2017-07-08T11:32:09.980Z,1007.52
2017-07-08T11:33:11.415Z,1007.52
2017-07-08T11:34:12.851Z,1007.48
2017-07-08T11:35:14.297Z,1007.49
2017-07-08T11:36:15.728Z,1007.50
2017-07-08T11:37:17.163Z,1007.49
2017-07-08T11:38:18.670Z,1007.48
2017-07-08T11:39:20.111Z,1007.55
2017-07-08T11:40:21.542Z,1007.50
2017-07-08T11:41:22.991Z,1007.53
2017-07-08T11:42:24.427Z,1007.60
2017-07-08T11:43:25.865Z,1007.57
2017-07-08T11:44:27.310Z,1007.49
2017-07-08T11:45:28.803Z,1007.53
2017-07-08T11:46:30.240Z,1007.51
2017-07-08T11:47:31.690Z,1007.57
2017-07-08T11:48:33.123Z,1007.60
2017-07-08T11:49:34.557Z,1007.51
2017-07-08T11:50:35.991Z,1007.51
2017-07-08T11:51:37.426Z,1007.48
2017-07-08T11:52:38.863Z,1007.49
2017-07-08T11:53:40.317Z,1007.50
2017-07-08T11:54:41.756Z,1007.48
2017-07-08T11:55:43.198Z,1007.50
2017-07-08T11:56:44.632Z,1007.52
2017-07-08T11:57:46.090Z,1007.47
2017-07-08T11:58:47.526Z,1007.49
2017-07-08T11:59:48.975Z,1007.46
2017-07-08T12:00:50.415Z,1007.47
2017-07-08T12:01:51.864Z,1007.47
2017-07-08T12:02:53.579Z,1007.49
2017-07-08T12:03:55.951Z,1007.50
2017-07-08T12:04:57.415Z,1007.51
2017-07-08T12:05:58.912Z,1007.54
2017-07-08T12:07:00.827Z,1007.51
2017-07-08T12:08:02.694Z,1007.51
2017-07-08T12:09:04.125Z,1007.49
2017-07-08T12:10:05.573Z,1007.42
2017-07-08T12:11:07.021Z,1007.48
2017-07-08T12:12:08.453Z,1007.46
2017-07-08T12:13:09.885Z,1007.38
2017-07-08T12:14:11.903Z,1007.40
2017-07-08T12:15:13.327Z,1007.36
2017-07-08T12:16:14.763Z,1007.35
2017-07-08T12:17:16.202Z,1007.42
2017-07-08T12:18:17.652Z,1007.34
2017-07-08T12:19:19.087Z,1007.36
2017-07-08T12:20:20.524Z,1007.34
2017-07-08T12:21:21.965Z,1007.35
2017-07-08T12:22:23.404Z,1007.38
2017-07-08T12:23:24.833Z,1007.35
2017-07-08T12:24:26.274Z,1007.35